createdAt,value
2022-07-30T00:02:20.997Z,6.20
2022-07-30T00:06:19.171Z,5.30
2022-07-30T00:10:19.833Z,5.80
2022-07-30T00:14:13.229Z,8.40
2022-07-30T00:17:23.670Z,10.70
2022-07-30T00:20:21.259Z,5.20
2022-07-30T00:23:37.874Z,8.90
2022-07-30T00:26:19.133Z,7.20
2022-07-30T00:29:17.637Z,4.90
2022-07-30T00:32:22.954Z,6.40
2022-07-30T00:35:21.265Z,6.80
2022-07-30T00:37:48.447Z,5.90
2022-07-30T00:40:25.074Z,7.20
2022-07-30T00:43:44.162Z,5.20
2022-07-30T00:47:51.234Z,4.70
2022-07-30T00:51:01.046Z,7.10
2022-07-30T00:54:05.117Z,7.00
2022-07-30T00:56:58.446Z,5.80
2022-07-30T00:59:34.510Z,6.70
2022-07-30T01:02:13.279Z,4.00
2022-07-30T01:04:40.435Z,5.60
2022-07-30T01:08:08.128Z,3.80
2022-07-30T01:11:05.206Z,7.90
2022-07-30T01:14:25.329Z,6.50
2022-07-30T01:18:26.125Z,6.00
2022-07-30T01:21:40.756Z,4.50
2022-07-30T01:25:10.627Z,6.50
2022-07-30T01:29:17.793Z,6.70
2022-07-30T01:33:25.798Z,4.60
2022-07-30T01:37:33.757Z,6.80
2022-07-30T01:41:02.036Z,5.40
2022-07-30T01:44:29.855Z,6.80
2022-07-30T01:48:12.563Z,4.70
2022-07-30T01:52:05.696Z,7.90
2022-07-30T01:56:10.757Z,6.30
2022-07-30T02:00:19.464Z,6.20
2022-07-30T02:04:27.498Z,5.90
2022-07-30T02:07:42.529Z,2.90
2022-07-30T02:11:06.179Z,4.30
2022-07-30T02:14:46.828Z,6.10
2022-07-30T02:18:53.473Z,5.40
2022-07-30T02:23:04.298Z,4.40
2022-07-30T02:27:15.382Z,6.20
2022-07-30T02:31:32.310Z,7.60
2022-07-30T02:35:05.022Z,5.50
2022-07-30T02:39:13.243Z,4.40
2022-07-30T02:43:14.299Z,4.70
2022-07-30T02:47:22.264Z,8.60
2022-07-30T02:51:30.227Z,4.60
2022-07-30T02:55:10.736Z,8.30
2022-07-30T02:58:23.038Z,5.20
2022-07-30T03:01:50.732Z,5.50
2022-07-30T03:05:49.814Z,3.20
2022-07-30T03:09:28.600Z,6.60
2022-07-30T03:13:10.708Z,5.20
2022-07-30T03:16:48.619Z,3.90
2022-07-30T03:20:27.754Z,4.30
2022-07-30T03:23:47.690Z,4.30
2022-07-30T03:26:33.224Z,6.60
2022-07-30T03:29:52.347Z,4.00
2022-07-30T03:34:00.315Z,3.10
2022-07-30T03:38:08.629Z,4.50
2022-07-30T03:42:16.671Z,5.70
2022-07-30T03:46:24.738Z,3.30
2022-07-30T03:50:14.731Z,5.80
2022-07-30T03:53:05.941Z,4.10
2022-07-30T03:57:06.462Z,4.90
2022-07-30T04:00:45.090Z,4.50
2022-07-30T04:04:36.756Z,4.20
2022-07-30T04:11:41.437Z,5.80
2022-07-30T04:16:37.851Z,4.80
2022-07-30T04:20:21.001Z,3.80
2022-07-30T04:24:28.952Z,6.70
2022-07-30T04:28:36.912Z,5.20
2022-07-30T04:31:59.713Z,5.20
2022-07-30T04:36:29.309Z,4.00
2022-07-30T04:40:37.316Z,4.90
2022-07-30T04:43:27.273Z,3.40
2022-07-30T04:46:46.061Z,3.20
2022-07-30T04:50:13.980Z,3.70
2022-07-30T04:53:45.062Z,4.00
2022-07-30T04:57:35.206Z,5.00
2022-07-30T05:00:19.606Z,6.10
2022-07-30T05:03:35.920Z,4.10
2022-07-30T05:06:12.896Z,6.50
2022-07-30T05:09:41.193Z,5.50
2022-07-30T05:13:46.386Z,4.30
2022-07-30T05:17:44.533Z,4.40
2022-07-30T05:21:26.261Z,6.00
2022-07-30T05:24:09.736Z,5.50
2022-07-30T05:28:00.872Z,4.10
2022-07-30T05:30:54.493Z,4.40
2022-07-30T05:34:03.903Z,6.10
2022-07-30T05:36:38.992Z,4.40
2022-07-30T05:40:37.303Z,4.50
2022-07-30T05:44:45.411Z,6.80
2022-07-30T05:48:53.537Z,4.70
2022-07-30T05:53:01.572Z,7.80
2022-07-30T05:57:24.612Z,4.50
2022-07-30T06:01:32.592Z,3.40
2022-07-30T06:05:40.622Z,3.30
2022-07-30T06:09:48.605Z,3.60
2022-07-30T06:13:49.447Z,6.50
2022-07-30T06:17:51.143Z,6.30
2022-07-30T06:21:00.762Z,3.70
2022-07-30T06:23:45.388Z,3.40
2022-07-30T06:27:25.972Z,6.20
2022-07-30T06:30:38.543Z,2.70
2022-07-30T06:33:51.135Z,5.30
2022-07-30T06:36:45.783Z,4.90
2022-07-30T06:39:56.623Z,4.50
2022-07-30T06:42:40.334Z,6.20
2022-07-30T06:45:30.403Z,4.80
2022-07-30T06:48:16.695Z,7.00
2022-07-30T06:50:44.042Z,4.40
2022-07-30T06:54:02.848Z,5.60
2022-07-30T06:57:51.491Z,4.40
2022-07-30T07:01:23.449Z,4.80
2022-07-30T07:04:24.715Z,5.70
2022-07-30T07:07:59.572Z,3.40
2022-07-30T07:12:07.952Z,5.30
2022-07-30T07:16:15.928Z,12.10
2022-07-30T07:20:14.447Z,3.90
2022-07-30T07:24:22.393Z,3.40
2022-07-30T07:28:17.194Z,3.30
2022-07-30T07:32:05.822Z,6.80
2022-07-30T07:35:04.517Z,8.10
2022-07-30T07:38:12.364Z,5.10
2022-07-30T07:40:47.462Z,6.80
2022-07-30T07:43:37.752Z,5.60
2022-07-30T07:47:05.605Z,4.70
2022-07-30T07:50:25.039Z,6.10
2022-07-30T07:52:55.218Z,6.00
2022-07-30T07:55:44.134Z,5.10
2022-07-30T07:58:32.165Z,7.00
2022-07-30T08:01:27.073Z,5.50
2022-07-30T08:04:30.570Z,5.40
2022-07-30T08:08:09.702Z,7.90
2022-07-30T08:11:59.375Z,8.70
2022-07-30T08:16:00.067Z,4.60
2022-07-30T08:20:06.678Z,5.50
2022-07-30T08:24:14.888Z,4.00
2022-07-30T08:28:07.193Z,3.80
2022-07-30T08:32:35.166Z,5.20
2022-07-30T08:36:26.186Z,5.70
2022-07-30T08:39:59.608Z,6.00
2022-07-30T08:44:00.364Z,8.00
2022-07-30T08:48:07.305Z,17.30
2022-07-30T08:52:18.013Z,5.20
2022-07-30T08:55:54.563Z,4.20
2022-07-30T08:59:59.615Z,5.90
2022-07-30T09:04:00.828Z,4.10
2022-07-30T09:08:09.129Z,3.00
2022-07-30T09:12:09.852Z,3.40
2022-07-30T09:16:06.289Z,4.90
2022-07-30T09:20:06.858Z,4.70
2022-07-30T09:24:07.550Z,6.10
2022-07-30T09:28:27.527Z,9.80
2022-07-30T09:32:21.494Z,6.00
2022-07-30T09:36:31.207Z,4.80
2022-07-30T09:40:31.450Z,5.70
2022-07-30T09:44:37.234Z,3.50
2022-07-30T09:48:37.161Z,6.10
2022-07-30T09:52:30.892Z,5.00
2022-07-30T09:56:30.400Z,6.90
2022-07-30T10:00:23.576Z,5.70
2022-07-30T10:04:26.117Z,4.20
2022-07-30T10:08:19.180Z,5.60
2022-07-30T10:11:51.064Z,3.20
2022-07-30T10:15:24.646Z,5.00
2022-07-30T10:18:42.773Z,4.60
2022-07-30T10:22:46.670Z,7.50
2022-07-30T10:26:36.294Z,5.40
2022-07-30T10:30:36.166Z,7.30
2022-07-30T10:34:19.660Z,5.10
2022-07-30T10:37:54.086Z,6.40
2022-07-30T10:41:42.844Z,3.40
2022-07-30T10:45:53.026Z,5.20
2022-07-30T10:49:48.226Z,5.40
2022-07-30T10:53:47.688Z,4.70
2022-07-30T10:57:43.637Z,4.70
2022-07-30T11:01:04.783Z,4.90
2022-07-30T11:05:27.113Z,3.70
2022-07-30T11:09:40.830Z,4.70
2022-07-30T11:13:42.844Z,3.60
2022-07-30T11:17:33.498Z,5.70
2022-07-30T11:21:51.553Z,6.40
2022-07-30T11:26:14.322Z,5.00
2022-07-30T11:30:13.014Z,4.10
2022-07-30T11:34:14.524Z,4.80
2022-07-30T11:38:22.410Z,6.70
2022-07-30T11:42:00.609Z,5.00
2022-07-30T11:45:57.897Z,5.00
2022-07-30T11:49:57.497Z,5.80
2022-07-30T11:53:58.191Z,7.30
2022-07-30T11:58:21.458Z,5.10
2022-07-30T12:02:07.985Z,5.10
2022-07-30T12:06:00.352Z,4.50
2022-07-30T12:09:50.236Z,3.40
2022-07-30T12:13:44.442Z,6.00
2022-07-30T12:16:59.868Z,6.60
2022-07-30T12:20:28.133Z,4.90
2022-07-30T12:23:54.568Z,4.10
2022-07-30T12:27:57.231Z,5.10
2022-07-30T12:31:23.080Z,3.50
2022-07-30T12:35:11.398Z,3.40
2022-07-30T12:38:51.424Z,4.60
2022-07-30T12:42:29.336Z,6.10
2022-07-30T12:45:31.377Z,7.00
2022-07-30T12:49:26.457Z,5.20
2022-07-30T12:53:28.525Z,4.90
2022-07-30T12:57:27.545Z,4.60
2022-07-30T13:01:15.121Z,5.80
2022-07-30T13:04:10.045Z,4.00
2022-07-30T13:07:35.997Z,4.60
2022-07-30T13:11:25.290Z,7.70
2022-07-30T13:15:05.987Z,4.40
2022-07-30T13:19:04.493Z,5.50
2022-07-30T13:22:55.983Z,6.80
2022-07-30T13:26:44.867Z,7.20
2022-07-30T13:30:41.418Z,8.10
2022-07-30T13:34:38.405Z,7.30
2022-07-30T13:38:46.390Z,5.40
2022-07-30T13:42:54.162Z,5.30
2022-07-30T13:46:41.450Z,5.40
2022-07-30T13:50:35.801Z,4.40
2022-07-30T13:54:14.583Z,4.80
2022-07-30T13:58:22.578Z,4.20
2022-07-30T14:01:18.676Z,6.90
2022-07-30T14:03:51.018Z,3.60
2022-07-30T14:06:23.124Z,4.40
2022-07-30T14:08:49.966Z,6.20
2022-07-30T14:11:17.969Z,6.90
2022-07-30T14:13:45.916Z,6.80
2022-07-30T14:16:42.604Z,5.80
2022-07-30T14:20:45.533Z,6.90
2022-07-30T14:24:55.240Z,4.10
2022-07-30T14:27:55.723Z,6.20
2022-07-30T14:30:50.757Z,5.60
2022-07-30T14:33:41.369Z,6.30
2022-07-30T14:36:43.984Z,5.50
2022-07-30T14:40:12.306Z,7.00
2022-07-30T14:43:39.762Z,6.80
2022-07-30T14:47:27.935Z,6.90
2022-07-30T14:51:15.210Z,9.70
2022-07-30T14:53:52.671Z,7.00
2022-07-30T14:57:34.104Z,9.30
2022-07-30T15:00:59.862Z,5.50
2022-07-30T15:05:24.167Z,5.10
2022-07-30T15:09:23.208Z,13.90
2022-07-30T15:12:48.444Z,6.80
2022-07-30T15:16:50.038Z,4.70
2022-07-30T15:19:56.641Z,4.90
2022-07-30T15:23:53.433Z,4.20
2022-07-30T15:27:31.812Z,5.40
2022-07-30T15:30:12.110Z,6.00
2022-07-30T15:33:00.080Z,5.50
2022-07-30T15:35:47.796Z,4.10
2022-07-30T15:39:22.199Z,3.30
2022-07-30T15:43:06.804Z,4.40
2022-07-30T15:46:22.814Z,3.70
2022-07-30T15:50:30.758Z,5.30
2022-07-30T15:54:01.295Z,3.50
2022-07-30T15:57:00.756Z,4.50
2022-07-30T16:00:28.414Z,4.40
2022-07-30T16:04:32.037Z,3.90
2022-07-30T16:08:40.209Z,5.40
2022-07-30T16:11:41.105Z,3.60
2022-07-30T16:15:26.015Z,4.50
2022-07-30T16:19:34.061Z,5.30
2022-07-30T16:23:42.061Z,8.40
2022-07-30T16:27:20.133Z,4.60
2022-07-30T16:30:51.265Z,2.60
2022-07-30T16:34:06.693Z,3.10
2022-07-30T16:38:05.690Z,6.20
2022-07-30T16:42:05.485Z,6.00
2022-07-30T16:46:13.842Z,7.40
2022-07-30T16:49:31.434Z,7.20
2022-07-30T16:52:41.325Z,15.30
2022-07-30T16:56:31.727Z,3.40
2022-07-30T17:00:31.014Z,8.10
2022-07-30T17:03:39.255Z,7.20
2022-07-30T17:07:47.103Z,8.50
2022-07-30T17:11:45.928Z,4.70
2022-07-30T17:15:32.521Z,6.90
2022-07-30T17:19:37.759Z,8.30
2022-07-30T17:22:55.379Z,10.20
2022-07-30T17:26:30.925Z,9.30
2022-07-30T17:30:10.319Z,5.00
2022-07-30T17:34:18.291Z,4.30
2022-07-30T17:38:26.423Z,9.30
2022-07-30T17:42:07.491Z,4.80
2022-07-30T17:46:15.793Z,10.50
2022-07-30T17:50:23.832Z,5.70
2022-07-30T17:54:31.888Z,5.20
2022-07-30T17:58:29.576Z,5.70
2022-07-30T18:02:29.441Z,6.60
2022-07-30T18:06:37.549Z,5.30
2022-07-30T18:10:45.701Z,6.80
2022-07-30T18:14:44.081Z,6.30
2022-07-30T18:18:52.115Z,6.00
2022-07-30T18:23:00.249Z,6.20
2022-07-30T18:26:51.269Z,5.20
2022-07-30T18:30:52.468Z,5.70
2022-07-30T18:34:31.200Z,7.00
2022-07-30T18:38:38.334Z,6.60
2022-07-30T18:42:42.731Z,8.40
2022-07-30T18:46:19.694Z,9.00
2022-07-30T18:50:10.769Z,6.60
2022-07-30T18:54:18.992Z,5.70
2022-07-30T18:58:27.080Z,4.60
2022-07-30T19:02:35.017Z,5.70
2022-07-30T19:06:34.256Z,7.00
2022-07-30T19:10:42.321Z,6.00
2022-07-30T19:14:26.604Z,5.70
2022-07-30T19:18:34.647Z,5.70
2022-07-30T19:22:42.844Z,6.20
2022-07-30T19:26:33.836Z,5.70
2022-07-30T19:30:25.144Z,5.10
2022-07-30T19:34:33.190Z,6.80
2022-07-30T19:38:41.265Z,4.10
2022-07-30T19:42:51.598Z,5.00
2022-07-30T19:46:53.115Z,6.80
2022-07-30T19:50:41.164Z,5.70
2022-07-30T19:54:41.793Z,8.00
2022-07-30T19:58:49.825Z,4.70
2022-07-30T20:02:40.146Z,4.50
2022-07-30T20:06:31.131Z,7.10
2022-07-30T20:10:33.130Z,10.30
2022-07-30T20:14:34.206Z,6.40
2022-07-30T20:18:43.526Z,6.00
2022-07-30T20:22:52.512Z,10.10
2022-07-30T20:27:00.497Z,5.20
2022-07-30T20:30:49.794Z,6.50
2022-07-30T20:34:58.182Z,5.30
2022-07-30T20:39:00.570Z,7.10
2022-07-30T20:42:40.865Z,7.20
2022-07-30T20:46:48.882Z,7.10
2022-07-30T20:50:30.912Z,7.40
2022-07-30T20:54:45.072Z,6.20
2022-07-30T20:58:32.442Z,7.70
2022-07-30T21:02:41.498Z,7.30
2022-07-30T21:06:47.904Z,7.20
2022-07-30T21:10:39.441Z,12.20
2022-07-30T21:14:48.501Z,8.00
2022-07-30T21:18:49.272Z,8.50
2022-07-30T21:21:51.735Z,10.60
2022-07-30T21:24:22.023Z,11.90
2022-07-30T21:27:07.044Z,13.90
2022-07-30T21:29:43.023Z,11.60
2022-07-30T21:32:10.231Z,16.70
2022-07-30T21:34:42.268Z,15.10
2022-07-30T21:37:59.186Z,14.80
2022-07-30T21:41:54.334Z,14.00
2022-07-30T21:45:42.604Z,16.30
2022-07-30T21:49:31.650Z,17.50
2022-07-30T21:53:29.987Z,17.00
2022-07-30T21:57:42.179Z,12.00
2022-07-30T22:01:49.448Z,13.60
2022-07-30T22:04:39.302Z,16.20
2022-07-30T22:07:08.998Z,19.30
2022-07-30T22:09:40.173Z,16.50
2022-07-30T22:12:12.543Z,14.70
2022-07-30T22:14:45.435Z,11.70
2022-07-30T22:17:23.279Z,16.80
2022-07-30T22:19:57.121Z,14.80
2022-07-30T22:22:30.097Z,17.40
2022-07-30T22:25:03.270Z,14.10
2022-07-30T22:27:56.883Z,20.30
2022-07-30T22:31:20.244Z,15.30
2022-07-30T22:35:11.126Z,17.00
2022-07-30T22:39:13.396Z,20.70
2022-07-30T22:42:49.490Z,17.60
2022-07-30T22:46:57.232Z,17.20
2022-07-30T22:50:59.161Z,20.00
2022-07-30T22:54:51.364Z,13.30
2022-07-30T22:58:31.706Z,15.10
2022-07-30T23:02:39.717Z,20.10
2022-07-30T23:06:41.846Z,13.30
2022-07-30T23:10:31.756Z,11.60
2022-07-30T23:14:02.562Z,13.60
2022-07-30T23:18:10.641Z,14.90
2022-07-30T23:22:18.633Z,11.90
2022-07-30T23:26:15.580Z,12.50
2022-07-30T23:30:21.439Z,10.80
2022-07-30T23:34:29.428Z,11.10
2022-07-30T23:38:27.683Z,11.40
2022-07-30T23:42:32.934Z,12.80
2022-07-30T23:48:40.134Z,12.70
2022-07-30T23:51:21.138Z,11.90
2022-07-30T23:54:23.288Z,10.80
2022-07-30T23:57:25.339Z,8.40
